AAL545 KHOU-KMIA
Flight info
| Callsign | AAL545 |
|---|---|
| Flight time | 1h 46m |
| Altitude | 39000 |
| Route | ELOCO6 LLA LEV Y290 GAWKS FROGZ5 |
| Aircraft | B77W/H-SDE1E2E3FGHIJ2J3J4J5M1RWXY/LB1D1 |
Departure
| Time | 2026-05-05 15:22 |
|---|---|
| Airport | William P. Hobby Airport (KHOU) |
Arrival
| Time | 2026-05-05 17:09 |
|---|---|
| Airport | Miami International Airport (KMIA) |
| Time | Latitude | Longitude | Altitude | Speed | Heading |
|---|---|---|---|---|---|
| 2026-05-05 14:52 | 29.65273 | -95.27929 | 48 ft | 0 kts | 144° |
| 2026-05-05 15:13 | 29.65276 | -95.27932 | 57 ft | 3 kts | 153° |
| 2026-05-05 15:13 | 29.65294 | -95.27938 | 50 ft | 3 kts | 188° |
| 2026-05-05 15:13 | 29.65312 | -95.27931 | 49 ft | 2 kts | 224° |
| 2026-05-05 15:13 | 29.65313 | -95.27929 | 49 ft | 0 kts | 224° |
| 2026-05-05 15:15 | 29.65313 | -95.27930 | 49 ft | 1 kts | 224° |
| 2026-05-05 15:16 | 29.65308 | -95.27935 | 50 ft | 1 kts | 224° |
| 2026-05-05 15:16 | 29.65306 | -95.27938 | 51 ft | 2 kts | 224° |
| 2026-05-05 15:16 | 29.65278 | -95.28001 | 53 ft | 11 kts | 263° |
| 2026-05-05 15:16 | 29.65315 | -95.28075 | 48 ft | 12 kts | 312° |
| 2026-05-05 15:17 | 29.65336 | -95.28166 | 52 ft | 13 kts | 254° |
| 2026-05-05 15:17 | 29.65308 | -95.28269 | 53 ft | 14 kts | 252° |
| 2026-05-05 15:17 | 29.65258 | -95.28371 | 49 ft | 16 kts | 224° |
| 2026-05-05 15:17 | 29.65223 | -95.28485 | 51 ft | 16 kts | 270° |
| 2026-05-05 15:18 | 29.65167 | -95.28565 | 49 ft | 13 kts | 186° |
| 2026-05-05 15:18 | 29.65092 | -95.28546 | 54 ft | 10 kts | 149° |
| 2026-05-05 15:18 | 29.65068 | -95.28521 | 53 ft | 1 kts | 133° |
| 2026-05-05 15:18 | 29.65062 | -95.28514 | 53 ft | 0 kts | 133° |
| 2026-05-05 15:21 | 29.65057 | -95.28506 | 52 ft | 8 kts | 133° |
| 2026-05-05 15:21 | 29.64852 | -95.28275 | 51 ft | 90 kts | 140° |
| 2026-05-05 15:22 | 29.64192 | -95.27466 | 124 ft | 173 kts | 139° |
| 2026-05-05 15:22 | 29.63337 | -95.26431 | 1036 ft | 184 kts | 139° |
| 2026-05-05 15:22 | 29.62452 | -95.25318 | 2167 ft | 188 kts | 138° |
| 2026-05-05 15:22 | 29.61600 | -95.24170 | 3197 ft | 195 kts | 130° |
| 2026-05-05 15:23 | 29.61151 | -95.22526 | 3648 ft | 239 kts | 101° |
| 2026-05-05 15:23 | 29.60987 | -95.20456 | 4144 ft | 274 kts | 100° |
| 2026-05-05 15:23 | 29.60774 | -95.18270 | 5277 ft | 282 kts | 101° |
| 2026-05-05 15:23 | 29.60524 | -95.15998 | 6417 ft | 292 kts | 101° |
| 2026-05-05 15:24 | 29.60242 | -95.13649 | 7448 ft | 298 kts | 100° |
| 2026-05-05 15:24 | 29.59942 | -95.11294 | 8540 ft | 300 kts | 99° |
| 2026-05-05 15:24 | 29.59627 | -95.08902 | 9615 ft | 305 kts | 99° |
| 2026-05-05 15:24 | 29.59302 | -95.06469 | 10566 ft | 314 kts | 98° |
| 2026-05-05 15:25 | 29.59008 | -95.03857 | 11106 ft | 347 kts | 92° |
| 2026-05-05 15:25 | 29.59080 | -95.00955 | 11497 ft | 377 kts | 82° |
| 2026-05-05 15:25 | 29.59625 | -94.97968 | 12444 ft | 385 kts | 71° |
| 2026-05-05 15:25 | 29.60463 | -94.95020 | 13599 ft | 391 kts | 67° |
| 2026-05-05 15:26 | 29.61372 | -94.92039 | 14545 ft | 401 kts | 67° |
| 2026-05-05 15:26 | 29.62270 | -94.88954 | 15500 ft | 412 kts | 69° |
| 2026-05-05 15:26 | 29.63152 | -94.85789 | 16481 ft | 421 kts | 69° |
| 2026-05-05 15:26 | 29.64106 | -94.82578 | 17482 ft | 428 kts | 65° |
| 2026-05-05 15:27 | 29.65246 | -94.79371 | 18400 ft | 437 kts | 64° |
| 2026-05-05 15:27 | 29.66425 | -94.76153 | 19257 ft | 446 kts | 63° |
| 2026-05-05 15:27 | 29.67640 | -94.72839 | 20165 ft | 454 kts | 63° |
| 2026-05-05 15:27 | 29.68865 | -94.69465 | 21089 ft | 461 kts | 63° |
| 2026-05-05 15:28 | 29.70100 | -94.66030 | 21980 ft | 469 kts | 63° |
| 2026-05-05 15:28 | 29.71355 | -94.62527 | 22834 ft | 477 kts | 63° |
| 2026-05-05 15:28 | 29.72619 | -94.58954 | 23626 ft | 486 kts | 64° |
| 2026-05-05 15:28 | 29.73557 | -94.55163 | 24300 ft | 500 kts | 75° |
| 2026-05-05 15:29 | 29.73955 | -94.51156 | 25074 ft | 509 kts | 85° |
| 2026-05-05 15:29 | 29.73826 | -94.47057 | 25875 ft | 516 kts | 96° |
| 2026-05-05 15:29 | 29.73273 | -94.43011 | 26622 ft | 520 kts | 99° |
| 2026-05-05 15:29 | 29.72663 | -94.38870 | 27321 ft | 527 kts | 98° |
| 2026-05-05 15:30 | 29.72112 | -94.34672 | 28001 ft | 533 kts | 97° |
| 2026-05-05 15:30 | 29.71614 | -94.30421 | 28700 ft | 538 kts | 96° |
| 2026-05-05 15:30 | 29.71147 | -94.26124 | 29377 ft | 543 kts | 96° |
| 2026-05-05 15:30 | 29.70683 | -94.21790 | 30028 ft | 549 kts | 96° |
| 2026-05-05 15:31 | 29.70206 | -94.17414 | 30568 ft | 554 kts | 96° |
| 2026-05-05 15:31 | 29.69716 | -94.13008 | 31082 ft | 558 kts | 96° |
| 2026-05-05 15:31 | 29.69215 | -94.08566 | 31578 ft | 562 kts | 96° |
| 2026-05-05 15:31 | 29.68737 | -94.04085 | 32086 ft | 565 kts | 94° |
| 2026-05-05 15:32 | 29.68520 | -93.99577 | 32644 ft | 563 kts | 88° |
| 2026-05-05 15:32 | 29.68484 | -93.95139 | 33322 ft | 561 kts | 87° |
| 2026-05-05 15:32 | 29.68478 | -93.90666 | 34003 ft | 558 kts | 87° |
| 2026-05-05 15:32 | 29.68476 | -93.86209 | 34580 ft | 557 kts | 87° |
| 2026-05-05 15:33 | 29.68463 | -93.81761 | 35121 ft | 556 kts | 88° |
| 2026-05-05 15:33 | 29.68437 | -93.77311 | 35732 ft | 553 kts | 88° |
| 2026-05-05 15:33 | 29.68399 | -93.72892 | 36318 ft | 552 kts | 88° |
| 2026-05-05 15:33 | 29.68353 | -93.68482 | 36821 ft | 551 kts | 88° |
| 2026-05-05 15:34 | 29.68303 | -93.64070 | 37284 ft | 552 kts | 88° |
| 2026-05-05 15:34 | 29.68250 | -93.59658 | 37751 ft | 551 kts | 89° |
| 2026-05-05 15:34 | 29.68198 | -93.55253 | 38247 ft | 551 kts | 89° |
| 2026-05-05 15:34 | 29.68144 | -93.50854 | 38717 ft | 550 kts | 89° |
| 2026-05-05 15:35 | 29.68090 | -93.46447 | 38994 ft | 553 kts | 89° |
| 2026-05-05 15:35 | 29.67980 | -93.37598 | 38948 ft | 555 kts | 89° |
| 2026-05-05 15:36 | 29.67861 | -93.28796 | 38952 ft | 547 kts | 89° |
| 2026-05-05 15:36 | 29.67739 | -93.20032 | 38957 ft | 547 kts | 89° |
| 2026-05-05 15:37 | 29.67612 | -93.11275 | 38986 ft | 550 kts | 89° |
| 2026-05-05 15:37 | 29.67547 | -93.06910 | 39186 ft | 553 kts | 89° |
| 2026-05-05 15:37 | 29.67478 | -93.02484 | 39585 ft | 552 kts | 89° |
| 2026-05-05 15:37 | 29.67408 | -92.98090 | 40023 ft | 549 kts | 89° |
| 2026-05-05 15:38 | 29.67337 | -92.93703 | 40444 ft | 547 kts | 89° |
| 2026-05-05 15:38 | 29.67265 | -92.89332 | 40818 ft | 546 kts | 89° |
| 2026-05-05 15:38 | 29.67192 | -92.84947 | 40937 ft | 551 kts | 89° |
| 2026-05-05 15:39 | 29.67040 | -92.76109 | 40956 ft | 552 kts | 89° |
| 2026-05-05 15:39 | 29.66881 | -92.67358 | 40954 ft | 545 kts | 89° |
| 2026-05-05 15:40 | 29.66721 | -92.58711 | 40964 ft | 544 kts | 89° |
| 2026-05-05 15:40 | 29.66554 | -92.50012 | 40966 ft | 544 kts | 89° |
| 2026-05-05 15:41 | 29.66376 | -92.41323 | 40969 ft | 544 kts | 90° |
| 2026-05-05 15:41 | 29.65505 | -92.32888 | 40962 ft | 548 kts | 102° |
| 2026-05-05 15:42 | 29.65293 | -92.31813 | 40957 ft | 548 kts | 103° |
| 2026-05-05 15:42 | 29.63482 | -92.23298 | 40975 ft | 549 kts | 103° |
| 2026-05-05 15:43 | 29.61639 | -92.14768 | 40971 ft | 550 kts | 103° |
| 2026-05-05 15:43 | 29.59848 | -92.06269 | 40971 ft | 551 kts | 103° |
| 2026-05-05 15:44 | 29.58066 | -91.97699 | 40978 ft | 551 kts | 103° |
| 2026-05-05 15:44 | 29.56280 | -91.89131 | 40991 ft | 552 kts | 103° |
| 2026-05-05 15:45 | 29.54484 | -91.80558 | 40981 ft | 552 kts | 103° |
| 2026-05-05 15:45 | 29.52676 | -91.71976 | 40938 ft | 553 kts | 103° |
| 2026-05-05 15:46 | 29.50865 | -91.63407 | 40974 ft | 550 kts | 103° |
| 2026-05-05 15:46 | 29.49071 | -91.54943 | 40978 ft | 549 kts | 103° |
| 2026-05-05 15:47 | 29.47783 | -91.48887 | 40974 ft | 548 kts | 103° |
| 2026-05-05 15:47 | 29.45680 | -91.39024 | 40986 ft | 547 kts | 103° |
| 2026-05-05 15:48 | 29.43865 | -91.30546 | 40992 ft | 547 kts | 103° |
| 2026-05-05 15:48 | 29.42353 | -91.23502 | 40993 ft | 546 kts | 103° |
| 2026-05-05 15:49 | 29.40528 | -91.15028 | 40992 ft | 549 kts | 103° |
| 2026-05-05 15:49 | 29.38685 | -91.06491 | 41010 ft | 560 kts | 103° |
| 2026-05-05 15:50 | 29.36787 | -90.97736 | 41007 ft | 569 kts | 103° |
| 2026-05-05 15:50 | 29.34862 | -90.88889 | 41003 ft | 574 kts | 103° |
| 2026-05-05 15:51 | 29.32921 | -90.79998 | 41003 ft | 575 kts | 103° |
| 2026-05-05 15:51 | 29.30972 | -90.71103 | 41005 ft | 575 kts | 103° |
| 2026-05-05 15:52 | 29.29034 | -90.62283 | 41004 ft | 574 kts | 103° |
| 2026-05-05 15:52 | 29.27086 | -90.53450 | 41007 ft | 572 kts | 103° |
| 2026-05-05 15:53 | 29.25136 | -90.44634 | 41014 ft | 570 kts | 103° |
| 2026-05-05 15:53 | 29.23187 | -90.35852 | 41018 ft | 567 kts | 103° |
| 2026-05-05 15:54 | 29.21242 | -90.27120 | 41021 ft | 565 kts | 103° |
| 2026-05-05 15:54 | 29.19300 | -90.18426 | 41013 ft | 559 kts | 103° |
| 2026-05-05 15:55 | 29.17295 | -90.09944 | 41006 ft | 548 kts | 108° |
| 2026-05-05 15:55 | 29.14444 | -90.01862 | 41032 ft | 548 kts | 114° |
| 2026-05-05 15:56 | 29.11392 | -89.93922 | 41036 ft | 549 kts | 114° |
| 2026-05-05 15:56 | 29.08334 | -89.85899 | 41033 ft | 551 kts | 113° |
| 2026-05-05 15:57 | 29.05324 | -89.77902 | 41033 ft | 551 kts | 113° |
| 2026-05-05 15:57 | 29.02289 | -89.69817 | 41033 ft | 552 kts | 113° |
| 2026-05-05 15:58 | 28.99252 | -89.61751 | 41029 ft | 552 kts | 113° |
| 2026-05-05 15:58 | 28.96209 | -89.53697 | 41034 ft | 551 kts | 113° |
| 2026-05-05 15:59 | 28.93189 | -89.45722 | 41025 ft | 549 kts | 114° |
| 2026-05-05 15:59 | 28.90159 | -89.37742 | 41028 ft | 547 kts | 114° |
| 2026-05-05 16:00 | 28.87132 | -89.29783 | 41038 ft | 546 kts | 114° |
| 2026-05-05 16:00 | 28.84098 | -89.21823 | 41045 ft | 546 kts | 114° |
| 2026-05-05 16:01 | 28.81067 | -89.13888 | 41052 ft | 546 kts | 114° |
| 2026-05-05 16:01 | 28.78048 | -89.05999 | 41042 ft | 546 kts | 114° |
| 2026-05-05 16:02 | 28.74997 | -88.98045 | 41044 ft | 547 kts | 114° |
| 2026-05-05 16:02 | 28.71943 | -88.90100 | 41048 ft | 548 kts | 114° |
| 2026-05-05 16:03 | 28.68879 | -88.82147 | 41049 ft | 548 kts | 114° |
| 2026-05-05 16:03 | 28.65806 | -88.74184 | 41040 ft | 549 kts | 114° |
| 2026-05-05 16:04 | 28.62744 | -88.66269 | 41054 ft | 548 kts | 114° |
| 2026-05-05 16:04 | 28.59666 | -88.58327 | 41061 ft | 548 kts | 114° |
| 2026-05-05 16:05 | 28.56589 | -88.50406 | 41057 ft | 547 kts | 114° |
| 2026-05-05 16:05 | 28.53507 | -88.42488 | 41047 ft | 547 kts | 114° |
| 2026-05-05 16:06 | 28.50426 | -88.34587 | 41066 ft | 546 kts | 114° |
| 2026-05-05 16:06 | 28.47360 | -88.26744 | 41049 ft | 546 kts | 114° |
| 2026-05-05 16:07 | 28.44266 | -88.18842 | 41051 ft | 546 kts | 114° |
| 2026-05-05 16:07 | 28.41170 | -88.10952 | 41054 ft | 547 kts | 114° |
| 2026-05-05 16:08 | 28.38101 | -88.03044 | 41072 ft | 546 kts | 111° |
| 2026-05-05 16:08 | 28.35642 | -87.94881 | 41076 ft | 545 kts | 106° |
| 2026-05-05 16:09 | 28.33360 | -87.86724 | 41058 ft | 545 kts | 106° |
| 2026-05-05 16:09 | 28.31040 | -87.78543 | 41059 ft | 545 kts | 106° |
| 2026-05-05 16:10 | 28.28679 | -87.70373 | 41067 ft | 544 kts | 106° |
| 2026-05-05 16:10 | 28.26314 | -87.62249 | 41061 ft | 544 kts | 106° |
| 2026-05-05 16:11 | 28.23936 | -87.54090 | 41063 ft | 544 kts | 107° |
| 2026-05-05 16:12 | 28.19181 | -87.37809 | 41064 ft | 544 kts | 107° |
| 2026-05-05 16:13 | 28.13205 | -87.17466 | 41062 ft | 543 kts | 106° |
| 2026-05-05 16:13 | 28.10826 | -87.09403 | 41062 ft | 543 kts | 106° |
| 2026-05-05 16:14 | 28.06021 | -86.93175 | 41086 ft | 543 kts | 106° |
| 2026-05-05 16:15 | 28.01192 | -86.76940 | 41064 ft | 543 kts | 106° |
| 2026-05-05 16:16 | 27.96475 | -86.60692 | 41060 ft | 543 kts | 105° |
| 2026-05-05 16:17 | 27.92967 | -86.48554 | 41062 ft | 543 kts | 105° |
| 2026-05-05 16:18 | 27.89416 | -86.36366 | 41060 ft | 544 kts | 105° |
| 2026-05-05 16:19 | 27.85854 | -86.24185 | 41057 ft | 544 kts | 106° |
| 2026-05-05 16:19 | 27.82293 | -86.12051 | 41072 ft | 546 kts | 105° |
| 2026-05-05 16:20 | 27.77493 | -85.95763 | 41065 ft | 546 kts | 105° |
| 2026-05-05 16:22 | 27.71463 | -85.75411 | 41062 ft | 546 kts | 105° |
| 2026-05-05 16:23 | 27.66638 | -85.59217 | 41068 ft | 546 kts | 105° |
| 2026-05-05 16:23 | 27.62996 | -85.47043 | 41071 ft | 546 kts | 105° |
| 2026-05-05 16:24 | 27.60561 | -85.38926 | 41072 ft | 546 kts | 105° |
| 2026-05-05 16:25 | 27.57759 | -85.26556 | 41060 ft | 540 kts | 95° |
| 2026-05-05 16:25 | 27.55700 | -85.14114 | 41072 ft | 541 kts | 97° |
| 2026-05-05 16:26 | 27.52777 | -84.97478 | 41077 ft | 541 kts | 96° |
| 2026-05-05 16:27 | 27.51564 | -84.90567 | 41068 ft | 541 kts | 96° |
| 2026-05-05 16:27 | 27.49852 | -84.80851 | 41072 ft | 541 kts | 96° |
| 2026-05-05 16:28 | 27.48375 | -84.72545 | 41071 ft | 541 kts | 97° |
| 2026-05-05 16:28 | 27.46880 | -84.64240 | 41072 ft | 541 kts | 96° |
| 2026-05-05 16:29 | 27.45391 | -84.56001 | 41069 ft | 540 kts | 96° |
| 2026-05-05 16:29 | 27.43890 | -84.47707 | 41069 ft | 539 kts | 97° |
| 2026-05-05 16:30 | 27.42390 | -84.39440 | 41070 ft | 539 kts | 97° |
| 2026-05-05 16:30 | 27.40889 | -84.31180 | 41073 ft | 538 kts | 97° |
| 2026-05-05 16:31 | 27.39388 | -84.22915 | 41079 ft | 538 kts | 96° |
| 2026-05-05 16:31 | 27.37881 | -84.14647 | 41071 ft | 538 kts | 96° |
| 2026-05-05 16:32 | 27.36380 | -84.06447 | 41072 ft | 538 kts | 96° |
| 2026-05-05 16:32 | 27.34865 | -83.98204 | 41073 ft | 538 kts | 96° |
| 2026-05-05 16:33 | 27.33345 | -83.89959 | 41086 ft | 538 kts | 96° |
| 2026-05-05 16:33 | 27.31820 | -83.81716 | 41073 ft | 538 kts | 96° |
| 2026-05-05 16:34 | 27.30290 | -83.73476 | 41072 ft | 538 kts | 96° |
| 2026-05-05 16:34 | 27.29020 | -83.66655 | 41073 ft | 537 kts | 96° |
| 2026-05-05 16:35 | 27.27863 | -83.60464 | 41076 ft | 537 kts | 97° |
| 2026-05-05 16:35 | 27.26592 | -83.53673 | 41077 ft | 537 kts | 97° |
| 2026-05-05 16:36 | 27.25122 | -83.45844 | 41077 ft | 537 kts | 96° |
| 2026-05-05 16:36 | 27.23580 | -83.37661 | 41075 ft | 537 kts | 96° |
| 2026-05-05 16:37 | 27.22027 | -83.29449 | 41077 ft | 537 kts | 97° |
| 2026-05-05 16:37 | 27.20466 | -83.21220 | 41076 ft | 537 kts | 97° |
| 2026-05-05 16:38 | 27.18915 | -83.13066 | 41085 ft | 537 kts | 96° |
| 2026-05-05 16:38 | 27.17566 | -83.05980 | 41076 ft | 537 kts | 96° |
| 2026-05-05 16:39 | 27.17272 | -83.04426 | 41080 ft | 537 kts | 96° |
| 2026-05-05 16:39 | 27.15717 | -82.96164 | 40313 ft | 547 kts | 96° |
| 2026-05-05 16:40 | 27.14926 | -82.91981 | 39696 ft | 545 kts | 96° |
| 2026-05-05 16:40 | 27.14138 | -82.87844 | 39291 ft | 538 kts | 96° |
| 2026-05-05 16:40 | 27.13221 | -82.83783 | 38869 ft | 538 kts | 105° |
| 2026-05-05 16:40 | 27.11589 | -82.80066 | 38409 ft | 538 kts | 119° |
| 2026-05-05 16:41 | 27.09578 | -82.76543 | 37997 ft | 532 kts | 121° |
| 2026-05-05 16:41 | 27.07544 | -82.73084 | 37578 ft | 527 kts | 121° |
| 2026-05-05 16:41 | 27.05552 | -82.69656 | 37156 ft | 522 kts | 120° |
| 2026-05-05 16:41 | 27.03612 | -82.66232 | 36767 ft | 517 kts | 119° |
| 2026-05-05 16:42 | 27.01724 | -82.62829 | 36373 ft | 512 kts | 119° |
| 2026-05-05 16:42 | 26.99863 | -82.59437 | 35982 ft | 508 kts | 118° |
| 2026-05-05 16:42 | 26.98022 | -82.56073 | 35586 ft | 504 kts | 118° |
| 2026-05-05 16:42 | 26.96191 | -82.52737 | 35139 ft | 501 kts | 119° |
| 2026-05-05 16:43 | 26.94365 | -82.49422 | 34737 ft | 498 kts | 119° |
| 2026-05-05 16:43 | 26.92572 | -82.46175 | 34333 ft | 495 kts | 120° |
| 2026-05-05 16:43 | 26.90543 | -82.43067 | 33825 ft | 495 kts | 135° |
| 2026-05-05 16:43 | 26.87991 | -82.40503 | 33339 ft | 492 kts | 141° |
| 2026-05-05 16:44 | 26.85353 | -82.38071 | 32845 ft | 491 kts | 142° |
| 2026-05-05 16:44 | 26.82709 | -82.35659 | 32356 ft | 489 kts | 142° |
| 2026-05-05 16:44 | 26.80088 | -82.33240 | 31874 ft | 487 kts | 141° |
| 2026-05-05 16:44 | 26.77497 | -82.30808 | 31395 ft | 485 kts | 141° |
| 2026-05-05 16:45 | 26.74933 | -82.28370 | 30925 ft | 482 kts | 141° |
| 2026-05-05 16:45 | 26.72386 | -82.25933 | 30452 ft | 480 kts | 141° |
| 2026-05-05 16:45 | 26.69861 | -82.23511 | 29939 ft | 478 kts | 141° |
| 2026-05-05 16:45 | 26.67342 | -82.21096 | 29410 ft | 474 kts | 141° |
| 2026-05-05 16:46 | 26.64844 | -82.18705 | 28891 ft | 471 kts | 141° |
| 2026-05-05 16:46 | 26.62369 | -82.16340 | 28395 ft | 467 kts | 141° |
| 2026-05-05 16:46 | 26.59889 | -82.13973 | 27598 ft | 471 kts | 141° |
| 2026-05-05 16:46 | 26.57423 | -82.11622 | 26952 ft | 471 kts | 141° |
| 2026-05-05 16:47 | 26.54952 | -82.09265 | 26717 ft | 460 kts | 141° |
| 2026-05-05 16:47 | 26.52561 | -82.06982 | 26608 ft | 447 kts | 141° |
| 2026-05-05 16:47 | 26.50209 | -82.04663 | 26188 ft | 443 kts | 140° |
| 2026-05-05 16:47 | 26.47965 | -82.02393 | 25774 ft | 440 kts | 140° |
| 2026-05-05 16:48 | 26.45711 | -82.00099 | 25352 ft | 438 kts | 140° |
| 2026-05-05 16:48 | 26.43463 | -81.97813 | 24920 ft | 435 kts | 140° |
| 2026-05-05 16:48 | 26.41226 | -81.95549 | 24487 ft | 433 kts | 140° |
| 2026-05-05 16:48 | 26.38994 | -81.93299 | 24059 ft | 431 kts | 140° |
| 2026-05-05 16:49 | 26.36770 | -81.91062 | 23613 ft | 429 kts | 140° |
| 2026-05-05 16:49 | 26.34557 | -81.88839 | 23128 ft | 427 kts | 140° |
| 2026-05-05 16:49 | 26.32356 | -81.86630 | 22673 ft | 423 kts | 140° |
| 2026-05-05 16:49 | 26.30177 | -81.84443 | 22254 ft | 419 kts | 140° |
| 2026-05-05 16:50 | 26.28024 | -81.82283 | 21850 ft | 415 kts | 140° |
| 2026-05-05 16:50 | 26.25886 | -81.80140 | 21441 ft | 412 kts | 140° |
| 2026-05-05 16:50 | 26.23835 | -81.77951 | 21030 ft | 407 kts | 131° |
| 2026-05-05 16:50 | 26.22369 | -81.75295 | 20652 ft | 398 kts | 114° |
| 2026-05-05 16:51 | 26.21238 | -81.72546 | 20285 ft | 395 kts | 114° |
| 2026-05-05 16:51 | 26.20092 | -81.69780 | 19920 ft | 392 kts | 114° |
| 2026-05-05 16:51 | 26.18930 | -81.67022 | 19527 ft | 390 kts | 115° |
| 2026-05-05 16:51 | 26.17766 | -81.64299 | 19142 ft | 388 kts | 115° |
| 2026-05-05 16:52 | 26.16599 | -81.61597 | 18756 ft | 386 kts | 115° |
| 2026-05-05 16:52 | 26.15434 | -81.58913 | 18379 ft | 385 kts | 115° |
| 2026-05-05 16:52 | 26.14267 | -81.56234 | 17950 ft | 382 kts | 115° |
| 2026-05-05 16:52 | 26.13112 | -81.53585 | 17553 ft | 379 kts | 115° |
| 2026-05-05 16:53 | 26.11962 | -81.50949 | 17172 ft | 376 kts | 116° |
| 2026-05-05 16:53 | 26.10840 | -81.48378 | 16803 ft | 373 kts | 116° |
| 2026-05-05 16:53 | 26.09712 | -81.45796 | 16427 ft | 369 kts | 116° |
| 2026-05-05 16:53 | 26.08594 | -81.43237 | 16059 ft | 366 kts | 116° |
| 2026-05-05 16:54 | 26.07480 | -81.40690 | 15700 ft | 364 kts | 116° |
| 2026-05-05 16:54 | 26.06381 | -81.38176 | 15366 ft | 360 kts | 116° |
| 2026-05-05 16:54 | 26.05292 | -81.35677 | 14991 ft | 358 kts | 116° |
| 2026-05-05 16:54 | 26.04212 | -81.33195 | 14648 ft | 355 kts | 117° |
| 2026-05-05 16:55 | 26.03139 | -81.30732 | 14304 ft | 352 kts | 117° |
| 2026-05-05 16:55 | 26.02073 | -81.28285 | 13950 ft | 350 kts | 117° |
| 2026-05-05 16:55 | 26.01015 | -81.25859 | 13587 ft | 348 kts | 117° |
| 2026-05-05 16:55 | 25.99964 | -81.23454 | 13222 ft | 344 kts | 117° |
| 2026-05-05 16:56 | 25.98921 | -81.21066 | 12873 ft | 341 kts | 117° |
| 2026-05-05 16:56 | 25.97904 | -81.18738 | 12538 ft | 337 kts | 117° |
| 2026-05-05 16:56 | 25.96886 | -81.16408 | 12215 ft | 333 kts | 117° |
| 2026-05-05 16:56 | 25.95874 | -81.14100 | 11896 ft | 330 kts | 117° |
| 2026-05-05 16:57 | 25.94877 | -81.11820 | 11577 ft | 326 kts | 117° |
| 2026-05-05 16:57 | 25.93889 | -81.09563 | 11256 ft | 323 kts | 117° |
| 2026-05-05 16:57 | 25.92906 | -81.07321 | 10949 ft | 320 kts | 117° |
| 2026-05-05 16:57 | 25.91932 | -81.05099 | 10623 ft | 318 kts | 117° |
| 2026-05-05 16:58 | 25.90977 | -81.02898 | 10332 ft | 315 kts | 115° |
| 2026-05-05 16:58 | 25.90113 | -81.00674 | 10025 ft | 313 kts | 114° |
| 2026-05-05 16:58 | 25.89279 | -80.98449 | 9700 ft | 310 kts | 113° |
| 2026-05-05 16:58 | 25.88462 | -80.96271 | 9378 ft | 307 kts | 114° |
| 2026-05-05 16:59 | 25.87650 | -80.94137 | 9057 ft | 292 kts | 114° |
| 2026-05-05 16:59 | 25.86863 | -80.92081 | 8798 ft | 290 kts | 114° |
| 2026-05-05 16:59 | 25.86064 | -80.89999 | 8551 ft | 296 kts | 114° |
| 2026-05-05 16:59 | 25.85258 | -80.87902 | 8281 ft | 295 kts | 114° |
| 2026-05-05 17:00 | 25.84456 | -80.85816 | 8025 ft | 291 kts | 114° |
| 2026-05-05 17:00 | 25.83665 | -80.83761 | 7745 ft | 289 kts | 114° |
| 2026-05-05 17:00 | 25.82878 | -80.81714 | 7468 ft | 288 kts | 114° |
| 2026-05-05 17:00 | 25.82089 | -80.79664 | 7161 ft | 289 kts | 114° |
| 2026-05-05 17:01 | 25.81296 | -80.77609 | 6862 ft | 288 kts | 114° |
| 2026-05-05 17:01 | 25.80510 | -80.75569 | 6551 ft | 286 kts | 114° |
| 2026-05-05 17:01 | 25.79730 | -80.73545 | 6259 ft | 284 kts | 114° |
| 2026-05-05 17:01 | 25.78955 | -80.71535 | 5976 ft | 282 kts | 114° |
| 2026-05-05 17:02 | 25.78186 | -80.69544 | 5676 ft | 280 kts | 114° |
| 2026-05-05 17:02 | 25.77425 | -80.67566 | 5392 ft | 274 kts | 112° |
| 2026-05-05 17:02 | 25.77059 | -80.65546 | 5094 ft | 265 kts | 88° |
| 2026-05-05 17:02 | 25.77203 | -80.63529 | 4869 ft | 264 kts | 85° |
| 2026-05-05 17:03 | 25.77321 | -80.61482 | 4705 ft | 266 kts | 86° |
| 2026-05-05 17:03 | 25.77422 | -80.59453 | 4450 ft | 266 kts | 86° |
| 2026-05-05 17:03 | 25.77530 | -80.57425 | 4202 ft | 256 kts | 86° |
| 2026-05-05 17:03 | 25.77617 | -80.55486 | 3962 ft | 245 kts | 86° |
| 2026-05-05 17:04 | 25.77691 | -80.53646 | 3819 ft | 235 kts | 87° |
| 2026-05-05 17:04 | 25.77763 | -80.51870 | 3534 ft | 226 kts | 85° |
| 2026-05-05 17:04 | 25.77836 | -80.50144 | 3250 ft | 220 kts | 85° |
| 2026-05-05 17:04 | 25.77906 | -80.48471 | 2959 ft | 214 kts | 86° |
| 2026-05-05 17:05 | 25.77972 | -80.46857 | 2713 ft | 211 kts | 86° |
| 2026-05-05 17:05 | 25.78040 | -80.45235 | 2410 ft | 209 kts | 85° |
| 2026-05-05 17:05 | 25.78106 | -80.43647 | 2137 ft | 201 kts | 85° |
| 2026-05-05 17:05 | 25.78167 | -80.42156 | 1886 ft | 186 kts | 85° |
| 2026-05-05 17:06 | 25.78223 | -80.40781 | 1675 ft | 171 kts | 84° |
| 2026-05-05 17:06 | 25.78277 | -80.39504 | 1426 ft | 161 kts | 85° |
| 2026-05-05 17:06 | 25.78326 | -80.38301 | 1243 ft | 152 kts | 84° |
| 2026-05-05 17:06 | 25.78373 | -80.37166 | 1062 ft | 143 kts | 83° |
| 2026-05-05 17:07 | 25.78420 | -80.36068 | 899 ft | 144 kts | 86° |
| 2026-05-05 17:07 | 25.78466 | -80.34966 | 721 ft | 140 kts | 88° |
| 2026-05-05 17:07 | 25.78509 | -80.33902 | 552 ft | 139 kts | 87° |
| 2026-05-05 17:07 | 25.78569 | -80.32834 | 370 ft | 139 kts | 88° |
| 2026-05-05 17:08 | 25.78597 | -80.31776 | 158 ft | 136 kts | 88° |
| 2026-05-05 17:08 | 25.78642 | -80.30741 | 32 ft | 131 kts | 89° |
| 2026-05-05 17:08 | 25.78680 | -80.29819 | 20 ft | 102 kts | 87° |
| 2026-05-05 17:08 | 25.78705 | -80.29203 | 21 ft | 58 kts | 87° |
| 2026-05-05 17:09 | 25.78727 | -80.28838 | 22 ft | 38 kts | 79° |
| 2026-05-05 17:09 | 25.78836 | -80.28665 | 19 ft | 15 kts | 41° |
| 2026-05-05 17:09 | 25.78919 | -80.28589 | 20 ft | 15 kts | 38° |
| 2026-05-05 17:09 | 25.78993 | -80.28533 | 20 ft | 8 kts | 34° |
| 2026-05-05 17:10 | 25.79047 | -80.28493 | 19 ft | 10 kts | 34° |
| 2026-05-05 17:10 | 25.79111 | -80.28449 | 20 ft | 12 kts | 31° |
| 2026-05-05 17:10 | 25.79162 | -80.28380 | 20 ft | 13 kts | 90° |
| 2026-05-05 17:10 | 25.79126 | -80.28289 | 20 ft | 13 kts | 121° |
| 2026-05-05 17:11 | 25.79074 | -80.28200 | 20 ft | 14 kts | 122° |
| 2026-05-05 17:11 | 25.79059 | -80.28171 | 23 ft | 1 kts | 118° |
| 2026-05-05 17:11 | 25.79053 | -80.28120 | 20 ft | 11 kts | 77° |
| 2026-05-05 17:11 | 25.79101 | -80.28065 | 20 ft | 9 kts | 27° |
| 2026-05-05 17:12 | 25.79114 | -80.28058 | 20 ft | 0 kts | 26° |
| 2026-05-05 17:12 | 25.79120 | -80.28058 | 20 ft | 1 kts | 357° |
| 2026-05-05 17:12 | 25.79109 | -80.28075 | 20 ft | 6 kts | 204° |
| 2026-05-05 17:12 | 25.79092 | -80.28083 | 20 ft | 0 kts | 201° |
| 2026-05-05 17:13 | 25.79081 | -80.28089 | 22 ft | 9 kts | 207° |
| 2026-05-05 17:13 | 25.79076 | -80.28202 | 20 ft | 23 kts | 297° |
| 2026-05-05 17:13 | 25.79166 | -80.28358 | 20 ft | 24 kts | 304° |
| 2026-05-05 17:13 | 25.79269 | -80.28509 | 21 ft | 21 kts | 298° |
| 2026-05-05 17:14 | 25.79350 | -80.28524 | 20 ft | 14 kts | 44° |
| 2026-05-05 17:14 | 25.79404 | -80.28470 | 20 ft | 3 kts | 40° |
| 2026-05-05 17:14 | 25.79411 | -80.28463 | 20 ft | 1 kts | 40° |